sensor_id;sensor_type;location;lat;lon;timestamp;P1;durP1;ratioP1;P2;durP2;ratioP2
28724;SDS011;43472;48.980;9.646;2023-09-07T00:03:54;10.07;;;6.15;;
28724;SDS011;43472;48.980;9.646;2023-09-07T00:08:57;14.40;;;5.88;;
28724;SDS011;43472;48.980;9.646;2023-09-07T00:14:00;9.70;;;5.65;;
28724;SDS011;43472;48.980;9.646;2023-09-07T00:19:02;7.55;;;4.50;;
28724;SDS011;43472;48.980;9.646;2023-09-07T00:24:04;10.35;;;4.97;;
28724;SDS011;43472;48.980;9.646;2023-09-07T00:29:07;7.55;;;4.40;;
28724;SDS011;43472;48.980;9.646;2023-09-07T00:34:09;9.77;;;5.00;;
28724;SDS011;43472;48.980;9.646;2023-09-07T00:39:11;6.50;;;4.15;;
28724;SDS011;43472;48.980;9.646;2023-09-07T00:44:13;10.20;;;4.75;;
28724;SDS011;43472;48.980;9.646;2023-09-07T00:49:15;9.15;;;4.65;;
28724;SDS011;43472;48.980;9.646;2023-09-07T00:54:17;7.28;;;5.00;;
28724;SDS011;43472;48.980;9.646;2023-09-07T00:59:20;7.82;;;4.68;;
28724;SDS011;43472;48.980;9.646;2023-09-07T01:04:22;9.18;;;5.20;;
28724;SDS011;43472;48.980;9.646;2023-09-07T01:09:26;7.47;;;3.85;;
28724;SDS011;43472;48.980;9.646;2023-09-07T01:14:33;5.07;;;4.18;;
28724;SDS011;43472;48.980;9.646;2023-09-07T01:19:34;5.47;;;3.97;;
28724;SDS011;43472;48.980;9.646;2023-09-07T01:24:38;13.48;;;5.10;;
28724;SDS011;43472;48.980;9.646;2023-09-07T01:29:41;10.05;;;5.60;;
28724;SDS011;43472;48.980;9.646;2023-09-07T01:34:44;9.80;;;6.00;;
28724;SDS011;43472;48.980;9.646;2023-09-07T01:39:46;7.85;;;5.80;;
28724;SDS011;43472;48.980;9.646;2023-09-07T01:44:51;14.82;;;5.72;;
28724;SDS011;43472;48.980;9.646;2023-09-07T01:49:53;12.80;;;6.05;;
28724;SDS011;43472;48.980;9.646;2023-09-07T01:54:55;8.82;;;5.40;;
28724;SDS011;43472;48.980;9.646;2023-09-07T01:59:57;8.52;;;6.22;;
28724;SDS011;43472;48.980;9.646;2023-09-07T02:05:00;10.07;;;5.30;;
28724;SDS011;43472;48.980;9.646;2023-09-07T02:10:02;10.02;;;5.80;;
28724;SDS011;43472;48.980;9.646;2023-09-07T02:15:06;7.65;;;5.60;;
28724;SDS011;43472;48.980;9.646;2023-09-07T02:20:09;8.38;;;5.75;;
28724;SDS011;43472;48.980;9.646;2023-09-07T02:25:21;11.85;;;5.97;;
28724;SDS011;43472;48.980;9.646;2023-09-07T02:30:23;9.32;;;5.80;;
28724;SDS011;43472;48.980;9.646;2023-09-07T02:35:26;6.35;;;5.15;;
28724;SDS011;43472;48.980;9.646;2023-09-07T02:40:27;14.65;;;6.30;;
28724;SDS011;43472;48.980;9.646;2023-09-07T02:45:29;11.55;;;6.43;;
28724;SDS011;43472;48.980;9.646;2023-09-07T02:50:32;10.70;;;5.97;;
28724;SDS011;43472;48.980;9.646;2023-09-07T02:55:38;8.32;;;5.65;;
28724;SDS011;43472;48.980;9.646;2023-09-07T03:00:43;8.43;;;5.50;;
28724;SDS011;43472;48.980;9.646;2023-09-07T03:05:48;9.95;;;5.90;;
28724;SDS011;43472;48.980;9.646;2023-09-07T03:10:50;11.48;;;5.57;;
28724;SDS011;43472;48.980;9.646;2023-09-07T03:16:03;8.73;;;5.53;;
28724;SDS011;43472;48.980;9.646;2023-09-07T03:21:07;12.40;;;6.18;;
28724;SDS011;43472;48.980;9.646;2023-09-07T03:26:10;19.77;;;6.60;;
28724;SDS011;43472;48.980;9.646;2023-09-07T03:31:12;13.23;;;7.03;;
28724;SDS011;43472;48.980;9.646;2023-09-07T03:36:14;11.95;;;6.57;;
28724;SDS011;43472;48.980;9.646;2023-09-07T03:41:17;10.93;;;7.43;;
28724;SDS011;43472;48.980;9.646;2023-09-07T03:46:19;12.02;;;6.93;;
28724;SDS011;43472;48.980;9.646;2023-09-07T03:51:21;12.90;;;6.53;;
28724;SDS011;43472;48.980;9.646;2023-09-07T03:56:23;7.82;;;5.82;;
28724;SDS011;43472;48.980;9.646;2023-09-07T04:01:26;9.70;;;6.07;;
28724;SDS011;43472;48.980;9.646;2023-09-07T04:06:28;8.90;;;5.57;;
28724;SDS011;43472;48.980;9.646;2023-09-07T04:11:30;8.27;;;5.68;;
28724;SDS011;43472;48.980;9.646;2023-09-07T04:16:32;8.48;;;6.47;;
28724;SDS011;43472;48.980;9.646;2023-09-07T04:21:36;11.23;;;5.82;;
28724;SDS011;43472;48.980;9.646;2023-09-07T04:26:42;10.48;;;6.50;;
28724;SDS011;43472;48.980;9.646;2023-09-07T04:31:44;11.15;;;5.88;;
28724;SDS011;43472;48.980;9.646;2023-09-07T04:36:48;12.25;;;6.30;;
28724;SDS011;43472;48.980;9.646;2023-09-07T04:41:50;9.57;;;5.70;;
28724;SDS011;43472;48.980;9.646;2023-09-07T04:46:56;8.15;;;6.30;;
28724;SDS011;43472;48.980;9.646;2023-09-07T04:51:58;10.60;;;5.93;;
28724;SDS011;43472;48.980;9.646;2023-09-07T04:57:00;11.50;;;6.28;;
28724;SDS011;43472;48.980;9.646;2023-09-07T05:02:04;8.10;;;6.00;;
28724;SDS011;43472;48.980;9.646;2023-09-07T05:07:06;7.13;;;5.53;;
28724;SDS011;43472;48.980;9.646;2023-09-07T05:12:09;13.38;;;5.93;;
28724;SDS011;43472;48.980;9.646;2023-09-07T05:17:14;9.90;;;6.03;;
28724;SDS011;43472;48.980;9.646;2023-09-07T05:22:20;10.23;;;5.18;;
28724;SDS011;43472;48.980;9.646;2023-09-07T05:27:23;12.88;;;6.05;;
28724;SDS011;43472;48.980;9.646;2023-09-07T05:32:25;11.55;;;5.75;;
28724;SDS011;43472;48.980;9.646;2023-09-07T05:37:27;7.78;;;5.00;;
28724;SDS011;43472;48.980;9.646;2023-09-07T05:42:29;10.10;;;5.88;;
28724;SDS011;43472;48.980;9.646;2023-09-07T05:47:32;15.43;;;12.13;;
28724;SDS011;43472;48.980;9.646;2023-09-07T05:52:35;12.63;;;8.70;;
28724;SDS011;43472;48.980;9.646;2023-09-07T05:57:37;9.82;;;5.93;;
28724;SDS011;43472;48.980;9.646;2023-09-07T06:02:40;8.57;;;5.60;;
28724;SDS011;43472;48.980;9.646;2023-09-07T06:07:43;5.95;;;4.72;;
28724;SDS011;43472;48.980;9.646;2023-09-07T06:12:45;11.85;;;6.40;;
28724;SDS011;43472;48.980;9.646;2023-09-07T06:17:47;8.60;;;5.85;;
28724;SDS011;43472;48.980;9.646;2023-09-07T06:22:50;9.23;;;4.97;;
28724;SDS011;43472;48.980;9.646;2023-09-07T06:27:53;11.00;;;5.43;;
28724;SDS011;43472;48.980;9.646;2023-09-07T06:32:56;10.75;;;5.68;;
28724;SDS011;43472;48.980;9.646;2023-09-07T06:38:16;7.07;;;5.03;;
28724;SDS011;43472;48.980;9.646;2023-09-07T06:43:18;22.13;;;11.00;;
28724;SDS011;43472;48.980;9.646;2023-09-07T06:48:21;11.10;;;5.82;;
28724;SDS011;43472;48.980;9.646;2023-09-07T06:53:23;13.20;;;5.43;;
28724;SDS011;43472;48.980;9.646;2023-09-07T06:58:41;5.72;;;4.72;;
28724;SDS011;43472;48.980;9.646;2023-09-07T07:03:43;7.35;;;5.13;;
28724;SDS011;43472;48.980;9.646;2023-09-07T07:08:45;8.00;;;4.35;;
28724;SDS011;43472;48.980;9.646;2023-09-07T07:13:47;10.82;;;4.70;;
28724;SDS011;43472;48.980;9.646;2023-09-07T07:18:49;9.70;;;4.53;;
28724;SDS011;43472;48.980;9.646;2023-09-07T07:23:51;6.63;;;4.25;;
28724;SDS011;43472;48.980;9.646;2023-09-07T07:28:53;6.70;;;3.78;;
28724;SDS011;43472;48.980;9.646;2023-09-07T07:33:56;6.03;;;3.58;;
28724;SDS011;43472;48.980;9.646;2023-09-07T07:39:02;4.22;;;3.60;;
28724;SDS011;43472;48.980;9.646;2023-09-07T07:44:05;5.75;;;3.65;;
28724;SDS011;43472;48.980;9.646;2023-09-07T07:49:07;4.25;;;3.50;;
28724;SDS011;43472;48.980;9.646;2023-09-07T07:54:10;9.05;;;3.30;;
28724;SDS011;43472;48.980;9.646;2023-09-07T07:59:12;5.82;;;3.58;;
28724;SDS011;43472;48.980;9.646;2023-09-07T08:04:14;7.18;;;3.75;;
28724;SDS011;43472;48.980;9.646;2023-09-07T08:09:16;6.47;;;3.13;;
28724;SDS011;43472;48.980;9.646;2023-09-07T08:14:18;4.57;;;3.25;;
28724;SDS011;43472;48.980;9.646;2023-09-07T08:19:20;10.43;;;3.10;;
28724;SDS011;43472;48.980;9.646;2023-09-07T08:24:22;4.30;;;3.10;;
28724;SDS011;43472;48.980;9.646;2023-09-07T08:29:25;4.43;;;3.13;;
28724;SDS011;43472;48.980;9.646;2023-09-07T08:34:28;10.77;;;3.35;;
28724;SDS011;43472;48.980;9.646;2023-09-07T08:39:30;3.38;;;2.78;;
28724;SDS011;43472;48.980;9.646;2023-09-07T08:44:33;3.92;;;3.10;;
28724;SDS011;43472;48.980;9.646;2023-09-07T08:49:38;4.35;;;2.80;;
28724;SDS011;43472;48.980;9.646;2023-09-07T08:54:42;7.32;;;3.25;;
28724;SDS011;43472;48.980;9.646;2023-09-07T08:59:45;5.82;;;3.08;;
28724;SDS011;43472;48.980;9.646;2023-09-07T09:04:47;3.17;;;2.88;;
28724;SDS011;43472;48.980;9.646;2023-09-07T09:09:49;7.50;;;3.33;;
28724;SDS011;43472;48.980;9.646;2023-09-07T09:14:52;3.20;;;2.67;;
28724;SDS011;43472;48.980;9.646;2023-09-07T09:19:54;5.40;;;2.72;;
28724;SDS011;43472;48.980;9.646;2023-09-07T09:25:02;5.35;;;3.10;;
28724;SDS011;43472;48.980;9.646;2023-09-07T09:30:06;3.03;;;2.70;;
28724;SDS011;43472;48.980;9.646;2023-09-07T09:35:08;5.93;;;3.30;;
28724;SDS011;43472;48.980;9.646;2023-09-07T09:40:13;5.03;;;2.72;;
28724;SDS011;43472;48.980;9.646;2023-09-07T09:45:15;4.45;;;3.08;;
28724;SDS011;43472;48.980;9.646;2023-09-07T09:50:18;2.88;;;2.40;;
28724;SDS011;43472;48.980;9.646;2023-09-07T09:55:21;5.00;;;2.97;;
28724;SDS011;43472;48.980;9.646;2023-09-07T10:00:24;3.30;;;3.00;;
28724;SDS011;43472;48.980;9.646;2023-09-07T10:05:26;5.90;;;3.00;;
28724;SDS011;43472;48.980;9.646;2023-09-07T10:10:33;4.40;;;3.00;;
28724;SDS011;43472;48.980;9.646;2023-09-07T10:15:38;7.30;;;3.15;;
28724;SDS011;43472;48.980;9.646;2023-09-07T10:26:00;8.43;;;2.90;;
28724;SDS011;43472;48.980;9.646;2023-09-07T10:31:15;5.45;;;2.83;;
28724;SDS011;43472;48.980;9.646;2023-09-07T10:36:22;5.28;;;2.72;;
28724;SDS011;43472;48.980;9.646;2023-09-07T10:41:40;6.75;;;2.45;;
28724;SDS011;43472;48.980;9.646;2023-09-07T10:46:44;3.90;;;2.88;;
28724;SDS011;43472;48.980;9.646;2023-09-07T10:51:46;7.60;;;2.83;;
28724;SDS011;43472;48.980;9.646;2023-09-07T10:56:48;4.25;;;3.25;;
28724;SDS011;43472;48.980;9.646;2023-09-07T11:01:51;3.55;;;2.85;;
28724;SDS011;43472;48.980;9.646;2023-09-07T11:06:54;5.05;;;3.63;;
28724;SDS011;43472;48.980;9.646;2023-09-07T11:11:56;7.72;;;2.90;;
28724;SDS011;43472;48.980;9.646;2023-09-07T11:16:58;6.93;;;2.78;;
28724;SDS011;43472;48.980;9.646;2023-09-07T11:22:00;4.13;;;2.80;;
28724;SDS011;43472;48.980;9.646;2023-09-07T11:27:02;3.20;;;2.90;;
28724;SDS011;43472;48.980;9.646;2023-09-07T11:32:06;6.38;;;3.47;;
28724;SDS011;43472;48.980;9.646;2023-09-07T11:37:10;4.80;;;2.60;;
28724;SDS011;43472;48.980;9.646;2023-09-07T11:42:12;4.95;;;2.85;;
28724;SDS011;43472;48.980;9.646;2023-09-07T11:47:14;4.38;;;3.17;;
28724;SDS011;43472;48.980;9.646;2023-09-07T11:52:16;8.45;;;2.70;;
28724;SDS011;43472;48.980;9.646;2023-09-07T11:57:20;4.43;;;3.00;;
28724;SDS011;43472;48.980;9.646;2023-09-07T12:02:24;4.25;;;3.20;;
28724;SDS011;43472;48.980;9.646;2023-09-07T12:07:26;4.80;;;3.00;;
28724;SDS011;43472;48.980;9.646;2023-09-07T12:12:28;7.78;;;3.33;;
28724;SDS011;43472;48.980;9.646;2023-09-07T12:17:31;3.55;;;3.08;;
28724;SDS011;43472;48.980;9.646;2023-09-07T12:22:33;5.82;;;2.90;;
28724;SDS011;43472;48.980;9.646;2023-09-07T12:27:38;5.65;;;3.00;;
28724;SDS011;43472;48.980;9.646;2023-09-07T12:32:54;8.15;;;3.15;;
28724;SDS011;43472;48.980;9.646;2023-09-07T12:37:56;3.65;;;2.80;;
28724;SDS011;43472;48.980;9.646;2023-09-07T12:42:58;7.32;;;3.40;;
28724;SDS011;43472;48.980;9.646;2023-09-07T12:48:01;3.38;;;2.70;;
28724;SDS011;43472;48.980;9.646;2023-09-07T12:53:03;3.88;;;3.10;;
28724;SDS011;43472;48.980;9.646;2023-09-07T12:58:06;6.40;;;2.72;;
28724;SDS011;43472;48.980;9.646;2023-09-07T13:03:07;4.20;;;2.90;;
28724;SDS011;43472;48.980;9.646;2023-09-07T13:08:10;7.43;;;2.90;;
28724;SDS011;43472;48.980;9.646;2023-09-07T13:13:12;6.22;;;3.25;;
28724;SDS011;43472;48.980;9.646;2023-09-07T13:18:15;3.80;;;2.85;;
28724;SDS011;43472;48.980;9.646;2023-09-07T13:23:17;9.30;;;2.78;;
28724;SDS011;43472;48.980;9.646;2023-09-07T13:28:19;4.95;;;2.70;;
28724;SDS011;43472;48.980;9.646;2023-09-07T13:33:21;4.13;;;2.65;;
28724;SDS011;43472;48.980;9.646;2023-09-07T13:38:23;4.15;;;2.97;;
28724;SDS011;43472;48.980;9.646;2023-09-07T13:43:28;5.93;;;2.70;;
28724;SDS011;43472;48.980;9.646;2023-09-07T13:48:32;4.18;;;2.80;;
28724;SDS011;43472;48.980;9.646;2023-09-07T13:53:34;4.72;;;2.58;;
28724;SDS011;43472;48.980;9.646;2023-09-07T13:58:36;4.03;;;2.83;;
28724;SDS011;43472;48.980;9.646;2023-09-07T14:03:40;3.28;;;2.50;;
28724;SDS011;43472;48.980;9.646;2023-09-07T14:08:43;5.10;;;3.15;;
28724;SDS011;43472;48.980;9.646;2023-09-07T14:13:46;6.80;;;2.95;;
28724;SDS011;43472;48.980;9.646;2023-09-07T14:18:53;2.97;;;2.25;;
28724;SDS011;43472;48.980;9.646;2023-09-07T14:23:56;5.25;;;2.60;;
28724;SDS011;43472;48.980;9.646;2023-09-07T14:28:58;4.78;;;2.70;;
28724;SDS011;43472;48.980;9.646;2023-09-07T14:34:02;4.30;;;2.55;;
28724;SDS011;43472;48.980;9.646;2023-09-07T14:39:06;3.85;;;2.75;;
28724;SDS011;43472;48.980;9.646;2023-09-07T14:44:10;4.00;;;3.10;;
28724;SDS011;43472;48.980;9.646;2023-09-07T14:49:13;3.25;;;2.25;;
28724;SDS011;43472;48.980;9.646;2023-09-07T14:54:16;3.15;;;2.55;;
28724;SDS011;43472;48.980;9.646;2023-09-07T14:59:18;7.95;;;3.35;;
28724;SDS011;43472;48.980;9.646;2023-09-07T15:04:19;4.10;;;2.80;;
28724;SDS011;43472;48.980;9.646;2023-09-07T15:09:22;3.88;;;2.47;;
28724;SDS011;43472;48.980;9.646;2023-09-07T15:14:24;4.63;;;2.70;;
28724;SDS011;43472;48.980;9.646;2023-09-07T15:19:26;6.03;;;2.95;;
28724;SDS011;43472;48.980;9.646;2023-09-07T15:24:28;3.55;;;2.63;;
28724;SDS011;43472;48.980;9.646;2023-09-07T15:29:32;3.20;;;2.22;;
28724;SDS011;43472;48.980;9.646;2023-09-07T15:34:34;3.45;;;2.65;;
28724;SDS011;43472;48.980;9.646;2023-09-07T15:39:38;9.98;;;4.70;;
28724;SDS011;43472;48.980;9.646;2023-09-07T15:44:41;5.15;;;2.80;;
28724;SDS011;43472;48.980;9.646;2023-09-07T15:49:49;6.43;;;3.53;;
28724;SDS011;43472;48.980;9.646;2023-09-07T15:54:53;9.35;;;3.63;;
28724;SDS011;43472;48.980;9.646;2023-09-07T15:59:55;9.50;;;3.85;;
28724;SDS011;43472;48.980;9.646;2023-09-07T16:05:01;5.60;;;3.30;;
28724;SDS011;43472;48.980;9.646;2023-09-07T16:10:04;8.68;;;3.05;;
28724;SDS011;43472;48.980;9.646;2023-09-07T16:15:06;8.77;;;3.03;;
28724;SDS011;43472;48.980;9.646;2023-09-07T16:20:09;4.93;;;2.97;;
28724;SDS011;43472;48.980;9.646;2023-09-07T16:25:12;6.22;;;2.70;;
28724;SDS011;43472;48.980;9.646;2023-09-07T16:30:14;3.58;;;2.67;;
28724;SDS011;43472;48.980;9.646;2023-09-07T16:35:17;7.03;;;3.00;;
28724;SDS011;43472;48.980;9.646;2023-09-07T16:40:20;3.25;;;2.40;;
28724;SDS011;43472;48.980;9.646;2023-09-07T16:45:22;5.18;;;2.65;;
28724;SDS011;43472;48.980;9.646;2023-09-07T16:50:24;4.43;;;2.80;;
28724;SDS011;43472;48.980;9.646;2023-09-07T16:55:26;6.32;;;3.22;;
28724;SDS011;43472;48.980;9.646;2023-09-07T17:00:30;6.97;;;2.55;;
28724;SDS011;43472;48.980;9.646;2023-09-07T17:05:34;4.63;;;2.92;;
28724;SDS011;43472;48.980;9.646;2023-09-07T17:10:37;3.13;;;2.65;;
28724;SDS011;43472;48.980;9.646;2023-09-07T17:15:39;5.85;;;2.83;;
28724;SDS011;43472;48.980;9.646;2023-09-07T17:20:41;3.85;;;2.40;;
28724;SDS011;43472;48.980;9.646;2023-09-07T17:25:45;3.92;;;2.60;;
28724;SDS011;43472;48.980;9.646;2023-09-07T17:30:47;4.40;;;2.72;;
28724;SDS011;43472;48.980;9.646;2023-09-07T17:35:49;2.83;;;2.13;;
28724;SDS011;43472;48.980;9.646;2023-09-07T17:40:55;6.60;;;2.38;;
28724;SDS011;43472;48.980;9.646;2023-09-07T17:45:57;4.53;;;2.55;;
28724;SDS011;43472;48.980;9.646;2023-09-07T17:50:59;5.20;;;2.70;;
28724;SDS011;43472;48.980;9.646;2023-09-07T17:56:08;6.28;;;3.00;;
28724;SDS011;43472;48.980;9.646;2023-09-07T18:01:11;6.68;;;3.58;;
28724;SDS011;43472;48.980;9.646;2023-09-07T18:06:15;11.73;;;3.92;;
28724;SDS011;43472;48.980;9.646;2023-09-07T18:11:18;4.47;;;3.25;;
28724;SDS011;43472;48.980;9.646;2023-09-07T18:16:23;6.68;;;3.50;;
28724;SDS011;43472;48.980;9.646;2023-09-07T18:21:26;7.10;;;3.13;;
28724;SDS011;43472;48.980;9.646;2023-09-07T18:26:29;7.47;;;3.45;;
28724;SDS011;43472;48.980;9.646;2023-09-07T18:31:32;8.57;;;3.55;;
28724;SDS011;43472;48.980;9.646;2023-09-07T18:36:34;7.63;;;3.00;;
28724;SDS011;43472;48.980;9.646;2023-09-07T18:41:36;5.22;;;3.22;;
28724;SDS011;43472;48.980;9.646;2023-09-07T18:46:38;10.93;;;4.30;;
28724;SDS011;43472;48.980;9.646;2023-09-07T18:51:43;8.27;;;3.90;;
28724;SDS011;43472;48.980;9.646;2023-09-07T18:56:44;8.45;;;4.00;;
28724;SDS011;43472;48.980;9.646;2023-09-07T19:01:46;7.10;;;3.45;;
28724;SDS011;43472;48.980;9.646;2023-09-07T19:06:50;8.27;;;3.47;;
28724;SDS011;43472;48.980;9.646;2023-09-07T19:11:52;9.00;;;3.20;;
28724;SDS011;43472;48.980;9.646;2023-09-07T19:16:53;12.32;;;4.90;;
28724;SDS011;43472;48.980;9.646;2023-09-07T19:21:56;6.63;;;3.63;;
28724;SDS011;43472;48.980;9.646;2023-09-07T19:26:58;12.80;;;4.38;;
28724;SDS011;43472;48.980;9.646;2023-09-07T19:32:00;5.05;;;4.10;;
28724;SDS011;43472;48.980;9.646;2023-09-07T19:37:03;10.13;;;3.70;;
28724;SDS011;43472;48.980;9.646;2023-09-07T19:42:07;8.32;;;3.92;;
28724;SDS011;43472;48.980;9.646;2023-09-07T19:47:08;9.00;;;4.35;;
28724;SDS011;43472;48.980;9.646;2023-09-07T19:52:13;8.25;;;4.38;;
28724;SDS011;43472;48.980;9.646;2023-09-07T19:57:14;9.48;;;4.22;;
28724;SDS011;43472;48.980;9.646;2023-09-07T20:02:17;6.20;;;3.83;;
28724;SDS011;43472;48.980;9.646;2023-09-07T20:07:19;8.98;;;4.43;;
28724;SDS011;43472;48.980;9.646;2023-09-07T20:12:20;11.57;;;4.40;;
28724;SDS011;43472;48.980;9.646;2023-09-07T20:17:23;7.45;;;4.15;;
28724;SDS011;43472;48.980;9.646;2023-09-07T20:22:26;6.72;;;3.78;;
28724;SDS011;43472;48.980;9.646;2023-09-07T20:27:29;5.68;;;3.83;;
28724;SDS011;43472;48.980;9.646;2023-09-07T20:32:31;7.10;;;3.85;;
28724;SDS011;43472;48.980;9.646;2023-09-07T20:37:33;6.85;;;4.13;;
28724;SDS011;43472;48.980;9.646;2023-09-07T20:42:35;12.85;;;4.25;;
28724;SDS011;43472;48.980;9.646;2023-09-07T20:47:38;9.30;;;4.40;;
28724;SDS011;43472;48.980;9.646;2023-09-07T20:52:40;8.38;;;3.75;;
28724;SDS011;43472;48.980;9.646;2023-09-07T20:57:46;5.32;;;3.95;;
28724;SDS011;43472;48.980;9.646;2023-09-07T21:02:50;6.82;;;4.15;;
28724;SDS011;43472;48.980;9.646;2023-09-07T21:07:52;9.35;;;4.07;;
28724;SDS011;43472;48.980;9.646;2023-09-07T21:12:56;7.18;;;4.15;;
28724;SDS011;43472;48.980;9.646;2023-09-07T21:17:58;8.50;;;4.38;;
28724;SDS011;43472;48.980;9.646;2023-09-07T21:23:02;8.32;;;4.35;;
28724;SDS011;43472;48.980;9.646;2023-09-07T21:28:04;10.75;;;5.03;;
28724;SDS011;43472;48.980;9.646;2023-09-07T21:33:07;10.73;;;4.05;;
28724;SDS011;43472;48.980;9.646;2023-09-07T21:38:11;8.15;;;5.18;;
28724;SDS011;43472;48.980;9.646;2023-09-07T21:43:15;9.75;;;4.50;;
28724;SDS011;43472;48.980;9.646;2023-09-07T21:48:17;6.38;;;4.75;;
28724;SDS011;43472;48.980;9.646;2023-09-07T21:53:19;8.35;;;4.60;;
28724;SDS011;43472;48.980;9.646;2023-09-07T21:58:21;6.72;;;5.13;;
28724;SDS011;43472;48.980;9.646;2023-09-07T22:03:23;8.73;;;4.40;;
28724;SDS011;43472;48.980;9.646;2023-09-07T22:08:26;10.82;;;4.43;;
28724;SDS011;43472;48.980;9.646;2023-09-07T22:13:30;17.23;;;8.95;;
28724;SDS011;43472;48.980;9.646;2023-09-07T22:18:33;9.65;;;5.00;;
28724;SDS011;43472;48.980;9.646;2023-09-07T22:23:37;13.75;;;5.07;;
28724;SDS011;43472;48.980;9.646;2023-09-07T22:28:44;7.05;;;5.00;;
28724;SDS011;43472;48.980;9.646;2023-09-07T22:33:46;10.00;;;6.00;;
28724;SDS011;43472;48.980;9.646;2023-09-07T22:38:48;8.65;;;5.70;;
28724;SDS011;43472;48.980;9.646;2023-09-07T22:43:52;14.43;;;6.38;;
28724;SDS011;43472;48.980;9.646;2023-09-07T22:48:53;9.70;;;5.32;;
28724;SDS011;43472;48.980;9.646;2023-09-07T22:53:56;10.85;;;5.50;;
28724;SDS011;43472;48.980;9.646;2023-09-07T22:58:58;9.02;;;6.00;;
28724;SDS011;43472;48.980;9.646;2023-09-07T23:04:01;8.63;;;6.35;;
28724;SDS011;43472;48.980;9.646;2023-09-07T23:09:05;9.10;;;6.30;;
28724;SDS011;43472;48.980;9.646;2023-09-07T23:14:08;8.80;;;5.90;;
28724;SDS011;43472;48.980;9.646;2023-09-07T23:19:11;10.93;;;6.65;;
28724;SDS011;43472;48.980;9.646;2023-09-07T23:24:16;10.48;;;6.00;;
28724;SDS011;43472;48.980;9.646;2023-09-07T23:29:19;10.88;;;7.10;;
28724;SDS011;43472;48.980;9.646;2023-09-07T23:34:23;12.63;;;6.82;;
28724;SDS011;43472;48.980;9.646;2023-09-07T23:39:25;14.30;;;6.90;;
28724;SDS011;43472;48.980;9.646;2023-09-07T23:44:26;11.55;;;6.57;;
28724;SDS011;43472;48.980;9.646;2023-09-07T23:49:30;12.48;;;7.68;;
28724;SDS011;43472;48.980;9.646;2023-09-07T23:54:35;10.85;;;7.13;;
28724;SDS011;43472;48.980;9.646;2023-09-07T23:59:38;9.63;;;6.90;;
